To NAV CANADA Home Page Login to a new session Search on AWWS site Feedback and Comments Disclaimer Vers la page française équivalente Tips FAQ What's new on the site To the Forecasts and Observations / NOTAM section To "File a Flight Plan" website Publications and other links Update of the User's profile FIC Telephone Numbers My Weather Data Folder Route Weather Data Regional Weather Data Local Weather Data To the Forecasts and Observations / NOTAM section
Request Generated 09/27/2016 at 10:22:07 UTC . Weather information available at that time is displayed.

METAR/TAF

CARTWRIGHT/NL    

METAR CWCA 271000Z 33015KT 2 1/2SM -RA BR SCT006 OVC012 03/03 A2985
RMK ST4SC4 CLD TPG HLS AL QDS SLP109=
SPECI CWCA 270926Z 33019KT 3SM -RASN BR SCT007 OVC015 03/03 A2983 RMK
ST4SC4 SLP104=
SPECI CWCA 270915Z 33017G23KT 4SM -RA BR SCT007 OVC015 03/02 A2983
RMK ST4SC4 SLP104=
METAR CWCA 270900Z 33018KT 4SM -RASN BR SCT007 OVC015 03/02 A2983 RMK
ST4SC4 SLP103=
SPECI CWCA 270843Z 32017G22KT 4SM -RASN BR SCT007 OVC015 03/02 A2982
RMK ST4SC4 SLP101=
METAR CWCA 270800Z 33018KT 7SM -RA SCT007 OVC015 02/02 A2981 RMK
ST4SC4 SLP097=

TAF AMD CYCA 270908Z 2709/2720 ADVISORY OFFSITE 33012G22KT 3SM -SNRA
BR OVC006 TEMPO 2709/2711 P6SM -SHRA SCT006 OVC015
FM271100 35012G22KT P6SM -SHRA SCT006 OVC015 TEMPO 2711/2715 3SM
-RA BR OVC006
BECMG 2711/2713 03012G22KT
FM271500 03012G22KT P6SM -SHRA SCT006 OVC015 TEMPO 2715/2717 P6SM
NSW SCT015 OVC050
FM271700 02012G22KT P6SM BKN015 OVC050
RMK NXT FCST BY 271400Z=
Your time UTC time
Weather data provided by Environment Canada and NAV CANADA